createdAt,value
2018-07-23T00:02:09.048Z,2.37
2018-07-23T00:04:37.836Z,3.35
2018-07-23T00:07:06.569Z,4.00
2018-07-23T00:09:35.294Z,2.17
2018-07-23T00:12:04.037Z,2.55
2018-07-23T00:14:32.812Z,1.82
2018-07-23T00:17:01.537Z,1.87
2018-07-23T00:19:30.331Z,2.52
2018-07-23T00:21:59.110Z,2.58
2018-07-23T00:24:27.921Z,2.90
2018-07-23T00:26:56.695Z,2.92
2018-07-23T00:29:25.481Z,2.17
2018-07-23T00:31:54.295Z,2.20
2018-07-23T00:34:23.039Z,3.45
2018-07-23T00:36:51.802Z,2.87
2018-07-23T00:39:20.589Z,1.50
2018-07-23T00:41:49.442Z,2.60
2018-07-23T00:44:18.188Z,3.55
2018-07-23T00:46:46.926Z,4.28
2018-07-23T00:49:15.634Z,3.05
2018-07-23T00:51:44.475Z,2.62
2018-07-23T00:54:13.280Z,4.97
2018-07-23T00:56:42.017Z,4.40
2018-07-23T00:59:10.749Z,3.72
2018-07-23T01:01:39.499Z,4.72
2018-07-23T01:04:08.291Z,2.85
2018-07-23T01:06:37.042Z,2.77
2018-07-23T01:09:07.930Z,2.37
2018-07-23T01:11:36.859Z,2.45
2018-07-23T01:14:05.860Z,2.05
2018-07-23T01:16:34.586Z,2.80
2018-07-23T01:19:03.375Z,3.30
2018-07-23T01:21:32.202Z,2.92
2018-07-23T01:24:00.937Z,5.72
2018-07-23T01:26:29.796Z,2.05
2018-07-23T01:28:58.543Z,1.72
2018-07-23T01:31:27.345Z,1.87
2018-07-23T01:33:56.072Z,1.50
2018-07-23T01:36:24.842Z,2.10
2018-07-23T01:38:53.592Z,1.85
2018-07-23T01:41:22.442Z,3.05
2018-07-23T01:43:51.198Z,2.55
2018-07-23T01:46:19.990Z,2.05
2018-07-23T01:48:48.731Z,2.12
2018-07-23T01:51:17.501Z,2.45
2018-07-23T01:53:46.256Z,2.12
2018-07-23T01:56:14.985Z,2.87
2018-07-23T01:58:43.731Z,2.22
2018-07-23T02:01:13.129Z,2.02
2018-07-23T02:03:42.428Z,3.85
2018-07-23T02:06:11.397Z,3.80
2018-07-23T02:08:40.281Z,1.45
2018-07-23T02:11:09.001Z,2.77
2018-07-23T02:13:37.784Z,3.30
2018-07-23T02:16:06.545Z,2.85
2018-07-23T02:18:35.273Z,1.50
2018-07-23T02:21:04.025Z,7.55
2018-07-23T02:23:32.779Z,3.02
2018-07-23T02:26:01.543Z,3.10
2018-07-23T02:28:30.300Z,2.35
2018-07-23T02:30:59.072Z,1.92
2018-07-23T02:33:27.829Z,3.60
2018-07-23T02:35:56.592Z,2.17
2018-07-23T02:38:25.359Z,2.55
2018-07-23T02:40:54.158Z,2.15
2018-07-23T02:43:22.863Z,2.80
2018-07-23T02:45:51.567Z,2.30
2018-07-23T02:48:20.298Z,2.30
2018-07-23T02:50:49.030Z,2.40
2018-07-23T02:53:17.840Z,2.27
2018-07-23T02:55:46.551Z,3.62
2018-07-23T02:58:15.308Z,1.42
2018-07-23T03:00:44.046Z,2.62
2018-07-23T03:03:12.809Z,2.40
2018-07-23T03:05:41.524Z,2.12
2018-07-23T03:08:10.265Z,2.45
2018-07-23T03:10:39.028Z,4.17
2018-07-23T03:13:08.075Z,2.70
2018-07-23T03:15:36.879Z,2.62
2018-07-23T03:18:05.705Z,3.15
2018-07-23T03:20:34.484Z,3.37
2018-07-23T03:23:03.194Z,1.72
2018-07-23T03:25:32.027Z,2.02
2018-07-23T03:28:00.845Z,2.17
2018-07-23T03:30:29.627Z,1.65
2018-07-23T03:32:58.368Z,2.67
2018-07-23T03:35:27.177Z,2.58
2018-07-23T03:37:55.949Z,4.60
2018-07-23T03:40:24.660Z,2.25
2018-07-23T03:42:53.480Z,3.17
2018-07-23T03:45:22.427Z,3.58
2018-07-23T03:47:51.133Z,3.90
2018-07-23T03:50:20.017Z,2.05
2018-07-23T03:52:48.774Z,4.72
2018-07-23T03:55:17.573Z,2.25
2018-07-23T03:57:46.316Z,1.80
2018-07-23T04:00:15.039Z,2.70
2018-07-23T04:02:43.746Z,2.12
2018-07-23T04:05:12.450Z,3.02
2018-07-23T04:07:41.168Z,4.97
2018-07-23T04:10:09.869Z,1.95
2018-07-23T04:12:38.592Z,3.77
2018-07-23T04:15:07.819Z,5.35
2018-07-23T04:17:36.694Z,4.40
2018-07-23T04:20:05.429Z,2.02
2018-07-23T04:22:34.132Z,2.80
2018-07-23T04:25:02.898Z,2.70
2018-07-23T04:27:31.633Z,3.47
2018-07-23T04:30:00.317Z,3.33
2018-07-23T04:32:29.132Z,1.85
2018-07-23T04:34:57.861Z,3.05
2018-07-23T04:37:26.532Z,2.60
2018-07-23T04:39:55.214Z,3.33
2018-07-23T04:42:23.937Z,2.08
2018-07-23T04:44:52.753Z,2.45
2018-07-23T04:47:21.496Z,3.80
2018-07-23T04:49:50.227Z,3.65
2018-07-23T04:52:18.968Z,2.45
2018-07-23T04:54:47.706Z,2.05
2018-07-23T04:57:16.453Z,2.95
2018-07-23T04:59:45.201Z,2.92
2018-07-23T05:02:14.018Z,2.25
2018-07-23T05:04:42.723Z,2.08
2018-07-23T05:07:11.413Z,2.45
2018-07-23T05:09:40.130Z,3.22
2018-07-23T05:12:08.985Z,2.40
2018-07-23T05:14:37.742Z,2.45
2018-07-23T05:17:06.505Z,2.52
2018-07-23T05:19:35.201Z,2.58
2018-07-23T05:22:04.038Z,1.70
2018-07-23T05:24:32.853Z,2.08
2018-07-23T05:27:01.535Z,2.00
2018-07-23T05:29:30.254Z,1.77
2018-07-23T05:31:58.990Z,2.75
2018-07-23T05:34:27.887Z,2.22
2018-07-23T05:36:56.583Z,2.62
2018-07-23T05:39:25.422Z,1.82
2018-07-23T05:41:54.177Z,3.12
2018-07-23T05:44:23.124Z,2.30
2018-07-23T05:46:51.908Z,3.75
2018-07-23T05:49:20.886Z,2.12
2018-07-23T05:51:49.677Z,2.72
2018-07-23T05:54:18.411Z,1.47
2018-07-23T05:56:47.220Z,1.55
2018-07-23T05:59:15.901Z,2.72
2018-07-23T06:01:44.669Z,1.52
2018-07-23T06:04:13.386Z,1.98
2018-07-23T06:06:42.174Z,2.05
2018-07-23T06:09:11.184Z,2.30
2018-07-23T06:11:39.875Z,3.55
2018-07-23T06:14:08.642Z,2.77
2018-07-23T06:16:37.413Z,2.33
2018-07-23T06:19:06.198Z,3.58
2018-07-23T06:21:35.022Z,1.82
2018-07-23T06:24:03.762Z,2.83
2018-07-23T06:26:32.514Z,2.20
2018-07-23T06:29:01.247Z,2.80
2018-07-23T06:31:29.927Z,1.65
2018-07-23T06:33:58.691Z,3.05
2018-07-23T06:36:27.594Z,2.98
2018-07-23T06:38:56.415Z,2.42
2018-07-23T06:41:25.228Z,2.62
2018-07-23T06:43:53.929Z,3.40
2018-07-23T06:46:22.718Z,2.72
2018-07-23T06:48:51.455Z,2.58
2018-07-23T06:51:20.153Z,2.80
2018-07-23T06:53:48.870Z,3.12
2018-07-23T06:56:17.617Z,2.17
2018-07-23T06:58:46.380Z,2.15
2018-07-23T07:01:15.115Z,2.62
2018-07-23T07:03:43.876Z,2.20
2018-07-23T07:19:02.765Z,3.65
2018-07-23T07:21:31.525Z,3.10
2018-07-23T07:24:00.269Z,2.95
2018-07-23T07:26:29.050Z,2.62
2018-07-23T07:28:57.815Z,2.45
2018-07-23T07:31:26.570Z,3.33
2018-07-23T07:33:55.330Z,4.97
2018-07-23T07:36:24.036Z,3.80
2018-07-23T07:38:52.853Z,2.87
2018-07-23T07:41:21.580Z,3.72
2018-07-23T07:43:51.183Z,4.67
2018-07-23T07:46:20.063Z,4.33
2018-07-23T07:48:48.853Z,3.80
2018-07-23T07:51:17.601Z,3.98
2018-07-23T07:53:46.334Z,3.95
2018-07-23T07:56:15.108Z,3.05
2018-07-23T07:58:43.881Z,3.67
2018-07-23T08:01:12.679Z,7.53
2018-07-23T08:03:41.381Z,2.65
2018-07-23T08:06:10.102Z,4.08
2018-07-23T08:08:38.805Z,5.78
2018-07-23T08:11:07.501Z,3.85
2018-07-23T08:13:36.386Z,5.40
2018-07-23T08:16:05.309Z,6.20
2018-07-23T08:18:34.037Z,4.37
2018-07-23T08:21:02.798Z,3.08
2018-07-23T08:23:31.557Z,2.92
2018-07-23T08:26:00.345Z,3.02
2018-07-23T08:28:29.263Z,4.67
2018-07-23T08:30:57.998Z,4.67
2018-07-23T08:33:26.793Z,3.37
2018-07-23T08:35:55.548Z,3.85
2018-07-23T08:38:24.312Z,6.42
2018-07-23T08:40:53.197Z,5.42
2018-07-23T08:43:21.996Z,7.90
2018-07-23T08:45:50.781Z,3.87
2018-07-23T08:48:19.465Z,6.17
2018-07-23T08:50:48.157Z,5.00
2018-07-23T08:53:16.916Z,4.90
2018-07-23T08:55:45.685Z,4.95
2018-07-23T08:58:14.441Z,4.50
2018-07-23T09:00:43.246Z,8.05
2018-07-23T09:03:11.954Z,4.08
2018-07-23T09:05:40.673Z,4.53
2018-07-23T09:08:09.443Z,4.28
2018-07-23T09:10:38.251Z,5.42
2018-07-23T09:13:07.038Z,5.08
2018-07-23T09:15:35.729Z,4.92
2018-07-23T09:18:04.482Z,3.90
2018-07-23T09:20:33.226Z,3.35
2018-07-23T09:23:02.001Z,4.42
2018-07-23T09:25:35.979Z,4.75
2018-07-23T09:28:04.744Z,4.80
2018-07-23T09:30:39.070Z,5.70
2018-07-23T09:33:08.547Z,5.60
2018-07-23T09:35:37.304Z,4.67
2018-07-23T09:38:06.133Z,4.90
2018-07-23T09:40:34.912Z,3.52
2018-07-23T09:43:04.265Z,4.58
2018-07-23T09:45:33.112Z,5.65
2018-07-23T09:48:01.892Z,5.37
2018-07-23T09:50:30.741Z,4.08
2018-07-23T09:52:59.523Z,4.15
2018-07-23T09:55:28.319Z,6.37
2018-07-23T09:57:57.161Z,8.23
2018-07-23T10:00:30.923Z,4.22
2018-07-23T10:02:59.752Z,7.08
2018-07-23T10:05:28.471Z,5.20
2018-07-23T10:07:57.222Z,5.53
2018-07-23T10:10:25.983Z,4.65
2018-07-23T10:12:54.790Z,3.47
2018-07-23T10:15:23.584Z,6.92
2018-07-23T10:17:52.314Z,4.15
2018-07-23T10:20:21.129Z,4.65
2018-07-23T10:22:50.496Z,4.92
2018-07-23T10:25:19.513Z,5.22
2018-07-23T10:27:49.118Z,3.58
2018-07-23T10:30:17.908Z,3.75
2018-07-23T10:32:47.298Z,2.95
2018-07-23T10:35:16.147Z,3.60
2018-07-23T10:37:44.913Z,3.58
2018-07-23T10:40:15.196Z,3.30
2018-07-23T10:42:44.585Z,3.67
2018-07-23T10:45:13.320Z,5.60
2018-07-23T10:47:42.157Z,3.22
2018-07-23T11:06:16.696Z,4.17
2018-07-23T11:21:35.461Z,5.60
2018-07-23T11:24:05.539Z,6.53
2018-07-23T11:26:34.378Z,5.62
2018-07-23T11:29:03.843Z,3.40
2018-07-23T11:31:32.876Z,4.50
2018-07-23T11:34:03.214Z,8.50
2018-07-23T11:36:32.537Z,4.70
2018-07-23T11:39:01.304Z,5.45
2018-07-23T11:54:20.141Z,3.75
2018-07-23T11:56:49.623Z,4.08
2018-07-23T11:59:25.575Z,6.65
2018-07-23T12:01:54.444Z,3.50
2018-07-23T12:04:24.151Z,11.60
2018-07-23T12:06:52.908Z,6.05
2018-07-23T12:09:21.677Z,7.70
2018-07-23T12:11:50.472Z,6.17
2018-07-23T12:14:19.258Z,4.42
2018-07-23T12:16:48.026Z,3.37
2018-07-23T12:19:16.730Z,9.23
2018-07-23T12:21:45.518Z,3.60
2018-07-23T12:24:14.277Z,5.25
2018-07-23T12:26:43.002Z,8.48
2018-07-23T12:29:11.720Z,7.55
2018-07-23T12:31:40.607Z,6.37
2018-07-23T12:34:09.350Z,7.62
2018-07-23T12:36:38.113Z,6.65
2018-07-23T12:39:09.783Z,4.95
2018-07-23T12:41:38.651Z,3.00
2018-07-23T12:44:07.429Z,3.92
2018-07-23T12:46:36.222Z,6.03
2018-07-23T12:49:05.094Z,4.40
2018-07-23T12:51:33.897Z,4.60
2018-07-23T12:54:02.782Z,5.80
2018-07-23T12:56:31.602Z,4.22
2018-07-23T12:59:00.484Z,4.33
2018-07-23T13:01:29.593Z,4.15
2018-07-23T13:03:58.328Z,3.62
2018-07-23T13:06:27.117Z,7.17
2018-07-23T13:08:55.912Z,6.47
2018-07-23T13:11:24.704Z,2.92
2018-07-23T13:13:53.410Z,5.58
2018-07-23T13:16:22.474Z,5.10
2018-07-23T13:18:51.199Z,4.03
2018-07-23T13:21:19.975Z,5.85
2018-07-23T13:23:48.785Z,5.22
2018-07-23T13:26:17.532Z,2.90
2018-07-23T13:28:46.268Z,4.62
2018-07-23T13:31:15.069Z,3.40
2018-07-23T13:33:43.949Z,4.20
2018-07-23T13:36:12.759Z,4.95
2018-07-23T13:38:41.582Z,4.00
2018-07-23T13:41:10.335Z,4.55
2018-07-23T13:43:39.173Z,4.55
2018-07-23T13:46:07.993Z,3.20
2018-07-23T13:48:36.829Z,3.27
2018-07-23T13:51:05.578Z,2.15
2018-07-23T13:53:34.294Z,3.42
2018-07-23T13:56:03.297Z,5.10
2018-07-23T13:58:32.013Z,2.58
2018-07-23T14:01:00.718Z,3.70
2018-07-23T14:03:29.512Z,2.52
2018-07-23T14:05:58.339Z,4.25
2018-07-23T14:08:27.177Z,3.50
2018-07-23T14:10:56.011Z,4.00
2018-07-23T14:13:24.742Z,4.53
2018-07-23T14:15:53.464Z,4.22
2018-07-23T14:18:22.229Z,3.75
2018-07-23T14:20:51.041Z,2.83
2018-07-23T14:23:19.811Z,2.45
2018-07-23T14:25:48.597Z,2.60
2018-07-23T14:28:17.351Z,3.08
2018-07-23T14:30:46.126Z,2.87
2018-07-23T14:33:14.858Z,3.33
2018-07-23T14:35:43.582Z,3.40
2018-07-23T14:38:12.405Z,3.45
2018-07-23T14:40:41.142Z,2.50
2018-07-23T14:43:09.954Z,2.70
2018-07-23T14:45:38.777Z,2.58
2018-07-23T14:48:07.588Z,3.75
2018-07-23T14:50:36.518Z,6.85
2018-07-23T14:53:05.338Z,5.37
2018-07-23T14:55:34.236Z,3.58
2018-07-23T14:58:03.007Z,2.10
2018-07-23T15:00:31.743Z,4.12
2018-07-23T15:03:00.589Z,13.32
2018-07-23T15:05:29.427Z,24.40
2018-07-23T15:07:59.377Z,22.70
2018-07-23T15:10:28.191Z,22.55
2018-07-23T15:12:57.014Z,26.77
2018-07-23T15:15:25.785Z,17.85
2018-07-23T15:17:54.536Z,14.80
2018-07-23T15:20:24.213Z,16.42
2018-07-23T15:22:52.999Z,17.10
2018-07-23T15:25:21.831Z,10.10
2018-07-23T15:27:50.613Z,15.10
2018-07-23T15:30:19.491Z,15.68
2018-07-23T15:32:48.283Z,13.50
2018-07-23T15:35:17.081Z,14.43
2018-07-23T15:37:45.941Z,11.43
2018-07-23T15:40:14.823Z,12.15
2018-07-23T15:42:43.641Z,9.30
2018-07-23T15:45:12.602Z,8.90
2018-07-23T15:47:41.304Z,9.08
2018-07-23T15:50:10.180Z,8.95
2018-07-23T15:52:39.223Z,8.45
2018-07-23T15:55:08.022Z,5.87
2018-07-23T15:57:36.784Z,6.97
2018-07-23T16:00:06.206Z,5.12
2018-07-23T16:02:35.293Z,6.22
2018-07-23T16:05:04.230Z,5.28
2018-07-23T16:07:33.173Z,7.65
2018-07-23T16:10:02.000Z,15.08
2018-07-23T16:12:30.853Z,8.93
2018-07-23T16:14:59.775Z,6.25
2018-07-23T16:17:30.299Z,6.60
2018-07-23T16:19:59.156Z,7.60
2018-07-23T16:22:27.925Z,8.08
2018-07-23T16:24:56.642Z,4.90
2018-07-23T16:27:25.443Z,5.70
2018-07-23T16:29:54.192Z,8.58
2018-07-23T16:32:23.720Z,4.17
2018-07-23T16:34:52.495Z,5.15
2018-07-23T16:37:21.231Z,4.78
2018-07-23T16:39:50.062Z,4.90
2018-07-23T16:42:18.902Z,5.90
2018-07-23T16:44:47.738Z,5.85
2018-07-23T16:47:16.514Z,3.35
2018-07-23T16:49:45.325Z,5.50
2018-07-23T16:52:15.222Z,6.28
2018-07-23T16:54:44.030Z,5.22
2018-07-23T17:00:43.834Z,3.45
2018-07-23T17:03:12.602Z,3.33
2018-07-23T17:05:44.549Z,3.67
2018-07-23T17:08:14.625Z,3.08
2018-07-23T17:10:44.453Z,3.67
2018-07-23T17:13:13.502Z,2.92
2018-07-23T17:15:42.337Z,4.20
2018-07-23T17:18:12.071Z,4.30
2018-07-23T17:20:40.848Z,3.55
2018-07-23T17:23:09.703Z,3.37
2018-07-23T17:25:38.610Z,5.05
2018-07-23T17:28:07.444Z,3.77
2018-07-23T17:30:36.799Z,4.35
2018-07-23T17:33:05.690Z,3.65
2018-07-23T17:35:34.650Z,3.33
2018-07-23T17:38:03.594Z,4.08
2018-07-23T17:40:32.657Z,4.47
2018-07-23T17:43:01.524Z,5.25
2018-07-23T17:45:31.212Z,3.30
2018-07-23T17:48:00.092Z,2.75
2018-07-23T17:50:29.592Z,3.35
2018-07-23T17:52:58.482Z,3.90
2018-07-23T17:55:27.527Z,5.60
2018-07-23T17:57:56.406Z,3.02
2018-07-23T18:00:25.451Z,4.47
2018-07-23T18:02:54.369Z,4.50
2018-07-23T18:05:23.308Z,3.20
2018-07-23T18:07:52.308Z,4.75
2018-07-23T18:10:22.025Z,4.15
2018-07-23T18:12:50.938Z,3.45
2018-07-23T18:15:19.863Z,4.28
2018-07-23T18:17:48.918Z,2.92
2018-07-23T18:20:17.945Z,3.20
2018-07-23T18:22:46.895Z,3.47
2018-07-23T18:25:15.838Z,3.33
2018-07-23T18:27:44.705Z,2.30
2018-07-23T18:30:14.407Z,3.08
2018-07-23T18:32:43.494Z,3.47
2018-07-23T18:35:12.998Z,2.60
2018-07-23T18:37:41.985Z,2.80
2018-07-23T18:40:11.610Z,3.98
2018-07-23T18:42:41.606Z,3.08
2018-07-23T18:45:10.517Z,2.58
2018-07-23T18:47:40.499Z,3.12
2018-07-23T18:50:09.436Z,3.45
2018-07-23T18:52:38.444Z,2.67
2018-07-23T18:55:07.356Z,2.80
2018-07-23T18:57:36.659Z,3.08
2018-07-23T19:00:06.405Z,4.55
2018-07-23T19:02:35.260Z,3.67
2018-07-23T19:05:04.307Z,2.67
2018-07-23T19:07:33.216Z,3.17
2018-07-23T19:10:02.100Z,2.90
2018-07-23T19:12:31.087Z,2.75
2018-07-23T19:14:59.938Z,3.25
2018-07-23T19:17:29.163Z,3.10
2018-07-23T19:19:58.184Z,2.55
2018-07-23T19:22:27.266Z,2.95
2018-07-23T19:24:56.197Z,2.87
2018-07-23T19:27:25.080Z,3.58
2018-07-23T19:29:54.049Z,2.77
2018-07-23T19:32:23.594Z,3.02
2018-07-23T19:34:53.103Z,3.30
2018-07-23T19:37:22.360Z,2.40
2018-07-23T19:39:51.330Z,2.20
2018-07-23T19:42:20.540Z,2.50
2018-07-23T19:44:49.659Z,2.08
2018-07-23T19:47:18.620Z,3.30
2018-07-23T19:49:47.566Z,2.98
2018-07-23T19:52:16.709Z,2.72
2018-07-23T19:54:45.908Z,3.05
2018-07-23T19:57:14.851Z,2.22
2018-07-23T19:59:43.905Z,1.98
2018-07-23T20:02:12.915Z,3.20
2018-07-23T20:04:42.959Z,2.58
2018-07-23T20:07:12.872Z,2.50
2018-07-23T20:09:42.434Z,2.83
2018-07-23T20:12:11.410Z,2.87
2018-07-23T20:14:40.405Z,3.58
2018-07-23T20:17:09.511Z,2.67
2018-07-23T20:19:39.127Z,2.40
2018-07-23T20:22:08.239Z,3.42
2018-07-23T20:24:37.381Z,2.52
2018-07-23T20:27:06.415Z,2.33
2018-07-23T20:29:35.323Z,2.52
2018-07-23T20:32:04.954Z,3.37
2018-07-23T20:34:34.112Z,2.77
2018-07-23T20:37:03.262Z,3.17
2018-07-23T20:39:33.062Z,2.45
2018-07-23T20:42:02.639Z,3.30
2018-07-23T20:44:31.973Z,2.75
2018-07-23T20:47:01.318Z,2.80
2018-07-23T20:49:30.422Z,2.17
2018-07-23T20:51:59.410Z,2.22
2018-07-23T20:54:28.506Z,2.50
2018-07-23T20:56:57.579Z,2.67
2018-07-23T20:59:26.933Z,2.40
2018-07-23T21:01:56.166Z,3.45
2018-07-23T21:04:25.211Z,2.60
2018-07-23T21:06:54.405Z,2.25
2018-07-23T21:09:23.434Z,2.70
2018-07-23T21:11:52.406Z,2.30
2018-07-23T21:14:21.432Z,3.17
2018-07-23T21:16:50.473Z,2.25
2018-07-23T21:19:19.414Z,2.20
2018-07-23T21:21:48.311Z,2.42
2018-07-23T21:24:17.242Z,2.22
2018-07-23T21:26:46.124Z,2.27
2018-07-23T21:29:15.078Z,2.37
2018-07-23T21:31:43.972Z,2.12
2018-07-23T21:34:13.274Z,2.20
2018-07-23T21:36:42.209Z,1.82
2018-07-23T21:39:11.557Z,2.00
2018-07-23T21:41:40.649Z,3.20
2018-07-23T21:44:09.504Z,2.30
2018-07-23T21:46:39.813Z,2.30
2018-07-23T21:49:08.873Z,2.02
2018-07-23T21:51:38.008Z,1.98
2018-07-23T21:54:07.106Z,2.47
2018-07-23T21:56:36.232Z,1.90
2018-07-23T21:59:05.351Z,2.08
2018-07-23T22:01:34.231Z,2.12
2018-07-23T22:04:03.189Z,2.30
2018-07-23T22:06:32.705Z,1.95
2018-07-23T22:09:01.905Z,2.20
2018-07-23T22:11:30.821Z,2.08
2018-07-23T22:14:00.507Z,6.85
2018-07-23T22:16:29.399Z,6.42
2018-07-23T22:18:58.338Z,5.83
2018-07-23T22:21:27.207Z,4.53
2018-07-23T22:23:56.075Z,4.17
2018-07-23T22:26:24.919Z,2.45
2018-07-23T22:28:53.722Z,9.88
2018-07-23T22:31:22.661Z,2.42
2018-07-23T22:33:51.569Z,2.75
2018-07-23T22:36:20.576Z,2.35
2018-07-23T22:38:49.593Z,3.90
2018-07-23T22:41:18.475Z,5.40
2018-07-23T22:43:47.311Z,2.50
2018-07-23T22:46:16.185Z,4.17
2018-07-23T22:48:45.047Z,1.80
2018-07-23T22:51:13.934Z,2.08
2018-07-23T22:53:42.771Z,2.05
2018-07-23T22:56:11.517Z,7.42
2018-07-23T22:58:40.354Z,2.42
2018-07-23T23:01:10.067Z,4.55
2018-07-23T23:03:38.857Z,2.98
2018-07-23T23:06:07.707Z,2.77
2018-07-23T23:08:36.514Z,2.95
2018-07-23T23:11:05.314Z,2.40
2018-07-23T23:13:36.133Z,2.62
2018-07-23T23:16:05.140Z,2.30
2018-07-23T23:18:34.087Z,3.52
2018-07-23T23:21:03.630Z,2.85
2018-07-23T23:23:32.404Z,4.00
2018-07-23T23:26:01.195Z,2.33
2018-07-23T23:28:29.961Z,2.20
2018-07-23T23:30:58.825Z,2.62
2018-07-23T23:33:27.612Z,3.05
2018-07-23T23:35:56.373Z,2.77
2018-07-23T23:38:25.184Z,3.05
2018-07-23T23:40:53.985Z,3.25
2018-07-23T23:43:22.851Z,2.47
2018-07-23T23:45:51.602Z,2.02
2018-07-23T23:48:20.410Z,4.17
2018-07-23T23:50:49.249Z,3.35
2018-07-23T23:53:19.129Z,3.98
2018-07-23T23:55:47.926Z,3.27
2018-07-23T23:58:16.641Z,3.15
